createdAt,value
2022-11-29T00:12:56.952Z,4.9
2022-11-29T00:26:56.956Z,4.8
2022-11-29T00:40:56.946Z,4.7
2022-11-29T00:54:56.939Z,4.8
2022-11-29T01:08:56.984Z,4.8
2022-11-29T01:22:56.969Z,4.6
2022-11-29T01:36:56.970Z,4.4
2022-11-29T01:50:56.980Z,4.3
2022-11-29T02:04:56.993Z,4.2
2022-11-29T02:18:57.016Z,4.4
2022-11-29T02:32:57.031Z,4.3
2022-11-29T02:46:57.045Z,5.0
2022-11-29T03:00:57.039Z,5.2
2022-11-29T03:14:57.031Z,5.0
2022-11-29T03:28:57.033Z,4.8
2022-11-29T03:42:57.086Z,5.0
2022-11-29T03:56:57.089Z,4.9
2022-11-29T04:10:57.104Z,4.9
2022-11-29T04:24:57.086Z,4.8
2022-11-29T04:38:57.100Z,4.8
2022-11-29T04:52:57.099Z,4.9
2022-11-29T05:06:57.131Z,4.9
2022-11-29T05:20:57.121Z,4.9
2022-11-29T05:34:57.121Z,4.9
2022-11-29T05:48:57.140Z,4.9
2022-11-29T06:02:57.218Z,4.9
2022-11-29T06:16:57.132Z,4.9
2022-11-29T06:26:10.049Z,4.8
2022-11-29T06:41:10.004Z,4.6
2022-11-29T06:56:10.022Z,4.7
2022-11-29T07:11:10.171Z,4.8
2022-11-29T07:26:10.676Z,4.9
2022-11-29T07:41:10.749Z,5.1
2022-11-29T07:56:10.774Z,5.3
2022-11-29T08:11:10.811Z,5.7
2022-11-29T08:26:10.875Z,5.9
2022-11-29T08:41:10.802Z,6.4
2022-11-29T08:56:32.135Z,6.7
2022-11-29T09:11:10.905Z,6.9
2022-11-29T09:26:10.862Z,7.2
2022-11-29T09:41:10.913Z,7.5
2022-11-29T09:56:10.948Z,7.8
2022-11-29T10:11:10.945Z,7.6
2022-11-29T10:26:10.987Z,7.4
2022-11-29T10:41:11.005Z,7.6
2022-11-29T10:56:11.012Z,7.6
2022-11-29T11:11:11.010Z,7.9
2022-11-29T11:26:10.976Z,8.1
2022-11-29T11:41:10.984Z,7.9
2022-11-29T11:56:11.070Z,8.0
2022-11-29T12:11:11.105Z,8.2
2022-11-29T12:26:13.601Z,8.6
2022-11-29T12:42:11.330Z,8.7
2022-11-29T12:57:11.396Z,9.0
2022-11-29T13:12:11.777Z,9.3
2022-11-29T13:27:11.636Z,9.1
2022-11-29T13:42:11.649Z,8.9
2022-11-29T13:57:11.663Z,8.6
2022-11-29T14:12:11.644Z,8.3
2022-11-29T14:27:11.682Z,7.9
2022-11-29T14:42:11.641Z,7.9
2022-11-29T14:57:11.645Z,7.6
2022-11-29T15:12:11.718Z,7.1
2022-11-29T15:27:11.687Z,6.4
2022-11-29T15:42:11.724Z,5.7
2022-11-29T15:57:11.703Z,5.4
2022-11-29T16:12:11.728Z,5.1
2022-11-29T16:26:11.711Z,5.0
2022-11-29T16:40:11.772Z,4.9
2022-11-29T16:54:11.764Z,4.9
2022-11-29T17:08:11.807Z,4.7
2022-11-29T17:23:11.828Z,4.3
2022-11-29T17:37:11.833Z,4.3
2022-11-29T17:51:29.089Z,4.0
2022-11-29T18:06:18.719Z,4.1
2022-11-29T18:20:18.995Z,4.5
2022-11-29T18:34:19.060Z,4.4
2022-11-29T18:49:19.176Z,4.6
2022-11-29T19:03:19.760Z,5.0
2022-11-29T19:17:19.550Z,5.1
2022-11-29T19:31:19.689Z,5.2
2022-11-29T19:45:19.667Z,5.4
2022-11-29T19:59:19.687Z,5.5
2022-11-29T20:13:19.696Z,5.6
2022-11-29T20:27:19.671Z,6.0
2022-11-29T20:41:19.676Z,5.8
2022-11-29T20:55:19.702Z,5.2
2022-11-29T21:09:19.699Z,4.6
2022-11-29T21:23:19.703Z,5.1
2022-11-29T21:37:19.805Z,5.2
2022-11-29T21:51:19.856Z,4.9
2022-11-29T22:05:19.892Z,4.9
2022-11-29T22:19:19.858Z,5.1
2022-11-29T22:33:20.144Z,5.2
2022-11-29T22:45:49.036Z,5.2
2022-11-29T22:59:48.991Z,5.1
2022-11-29T23:13:49.065Z,5.3
2022-11-29T23:27:49.051Z,5.5
2022-11-29T23:41:49.174Z,5.7
2022-11-29T23:55:49.207Z,5.5
